Elsberry, Missouri
Current Conditions -  °F | °C
As of 10:54 AM on Saturday 22 Nov 2014 (Local Time) from KSET Reporting Station
Overcast Overcast  
Wind Chill: 57°   Ceiling: 2900
Heat Index: 57°   Visibility: 10mi
Dew Point: 47°   Wind: 14mph
Humidity: 69%   Direction: 200°SSW
Pressure: 30.06"   Gusts: 22mph
Location:  39.17°N, 90.78°W
Report Text: KSET 221654Z AUTO 20012G19KT 10SM OVC029 14/08 A3006 RMK AO2 SLP178 T01390083
Loading
Personal Weather Stations






























Interactive Weather Map New forecast layout! Learn more

10-Day Weather Forecast

Advertisements
Track Severe Weather on mobile